Time;durP1;ratioP1;P1;durP2;ratioP2;P2;SDS_P1;SDS_P2;PMS_P1;PMS_P2;Temp;Humidity;BMP_temperature;BMP_pressure;BME280_temperature;BME280_humidity;BME280_pressure;Samples;Min_cycle;Max_cycle;Signal;HPM_P1;HPM_P2
2021/12/02 00:01:11;;;;;;;2.33;1.87;;;-0.90;99.90;;;;;;4339600;32;20149;-77
2021/12/02 00:05:44;;;;;;;2.43;1.90;;;-1.00;99.90;;;;;;3857535;37;20054;-77
2021/12/02 00:08:12;;;;;;;2.95;1.98;;;-1.00;99.90;;;;;;4391978;32;20245;-79
2021/12/02 00:10:40;;;;;;;2.35;1.77;;;-1.00;99.90;;;;;;4378623;32;20174;-78
2021/12/02 00:13:07;;;;;;;2.92;1.80;;;-1.00;99.90;;;;;;4378846;32;20065;-78
2021/12/02 00:15:43;;;;;;;3.65;2.08;;;-1.10;99.90;;;;;;4378055;32;20084;-77
2021/12/02 00:23:37;;;;;;;2.55;1.95;;;-1.10;99.90;;;;;;4403506;32;20069;-78
2021/12/02 00:26:09;;;;;;;1.92;1.70;;;-1.10;99.90;;;;;;4403224;32;20068;-78
2021/12/02 00:28:36;;;;;;;2.45;1.90;;;-1.00;99.90;;;;;;4378312;32;20077;-78
2021/12/02 00:31:03;;;;;;;3.05;2.17;;;-1.10;99.90;;;;;;4390711;32;20591;-79
2021/12/02 00:33:30;;;;;;;2.45;1.85;;;-1.10;99.90;;;;;;4390691;32;20081;-78
2021/12/02 00:35:56;;;;;;;3.00;1.60;;;-1.10;99.90;;;;;;4390340;32;20084;-78
2021/12/02 00:38:24;;;;;;;2.45;1.80;;;-1.20;99.90;;;;;;4390182;32;20497;-78
2021/12/02 00:40:51;;;;;;;2.95;1.95;;;-1.20;99.90;;;;;;4377580;32;20093;-78
2021/12/02 00:43:17;;;;;;;4.15;2.20;;;-1.20;99.90;;;;;;4402453;32;20181;-78
2021/12/02 00:45:43;;;;;;;2.78;2.15;;;-1.20;99.90;;;;;;4402527;32;20085;-79
2021/12/02 00:48:14;;;;;;;2.58;2.15;;;-1.20;99.90;;;;;;4390262;32;20141;-78
2021/12/02 00:50:45;;;;;;;3.60;2.20;;;-1.30;99.90;;;;;;4390451;32;20543;-78
2021/12/02 00:53:12;;;;;;;2.67;2.30;;;-1.30;99.90;;;;;;4377406;32;20166;-78
2021/12/02 00:55:40;;;;;;;4.55;2.12;;;-1.30;99.90;;;;;;4390041;32;20085;-77
2021/12/02 00:58:06;;;;;;;2.92;2.00;;;-1.20;99.90;;;;;;4390014;32;20076;-77
2021/12/02 01:01:16;;;;;;;3.80;2.07;;;-1.30;99.90;;;;;;3857361;37;20055;-77
2021/12/02 01:03:44;;;;;;;2.58;1.87;;;-1.20;99.90;;;;;;4381309;32;20141;-77
2021/12/02 01:06:10;;;;;;;2.90;2.00;;;-1.30;99.90;;;;;;4391973;32;20149;-77
2021/12/02 01:08:40;;;;;;;2.47;2.10;;;-1.30;99.90;;;;;;4390305;32;20078;-78
2021/12/02 01:11:08;;;;;;;3.35;2.05;;;-1.30;99.90;;;;;;4378703;32;20084;-78
2021/12/02 01:13:34;;;;;;;3.35;2.30;;;-1.40;99.90;;;;;;4390905;32;20174;-78
2021/12/02 01:16:00;;;;;;;2.45;2.05;;;-1.40;99.90;;;;;;4403109;32;20177;-78
2021/12/02 01:18:26;;;;;;;2.95;2.25;;;-1.40;99.90;;;;;;4403004;32;20077;-78
2021/12/02 01:20:53;;;;;;;3.33;2.15;;;-1.40;99.90;;;;;;4402928;32;20518;-78
2021/12/02 01:23:23;;;;;;;2.30;2.00;;;-1.40;99.90;;;;;;4377813;32;20484;-78
2021/12/02 01:26:02;;;;;;;2.12;1.70;;;-1.50;99.90;;;;;;4390202;32;20087;-78
2021/12/02 01:28:28;;;;;;;3.97;2.00;;;-1.50;99.90;;;;;;4378099;32;20077;-78
2021/12/02 01:30:54;;;;;;;2.58;1.90;;;-1.50;99.90;;;;;;4402871;32;20463;-78
2021/12/02 01:33:22;;;;;;;3.45;2.30;;;-1.50;99.90;;;;;;4390401;32;20439;-78
2021/12/02 01:35:58;;;;;;;2.67;2.00;;;-1.40;99.90;;;;;;4390080;32;20078;-78
2021/12/02 01:38:25;;;;;;;2.50;1.98;;;-1.40;99.90;;;;;;4390806;32;20084;-78
2021/12/02 01:40:52;;;;;;;2.97;2.35;;;-1.50;99.90;;;;;;4364651;32;20545;-78
2021/12/02 01:43:20;;;;;;;3.25;2.50;;;-1.60;99.90;;;;;;4402834;32;20180;-78
2021/12/02 01:45:46;;;;;;;3.15;2.00;;;-1.60;99.90;;;;;;4390066;32;20451;-78
2021/12/02 01:48:22;;;;;;;3.60;2.20;;;-1.50;99.90;;;;;;4389891;32;20085;-77
2021/12/02 01:51:00;;;;;;;3.17;2.00;;;-1.50;99.90;;;;;;4390834;32;20097;-78
2021/12/02 01:53:32;;;;;;;4.35;2.40;;;-1.40;99.90;;;;;;4377597;32;20077;-78
2021/12/02 01:56:13;;;;;;;2.67;2.35;;;-1.40;99.90;;;;;;4377439;32;20537;-78
2021/12/02 01:58:50;;;;;;;3.08;2.00;;;-1.40;99.90;;;;;;4390363;32;20463;-77
2021/12/02 02:01:23;;;;;;;2.80;1.85;;;-1.40;99.90;;;;;;4377949;32;20077;-78
2021/12/02 02:03:51;;;;;;;4.53;2.45;;;-1.40;99.90;;;;;;4389968;32;20077;-78
2021/12/02 02:06:36;;;;;;;3.25;2.40;;;-1.50;99.90;;;;;;4377188;32;20172;-77
2021/12/02 02:09:04;;;;;;;4.03;2.50;;;-1.40;99.90;;;;;;4389717;32;20081;-77
2021/12/02 02:11:31;;;;;;;3.70;2.33;;;-1.50;99.90;;;;;;4384590;32;20066;-78
2021/12/02 02:13:58;;;;;;;3.03;2.20;;;-1.50;99.90;;;;;;4379612;32;20162;-78
2021/12/02 02:16:24;;;;;;;3.45;2.22;;;-1.40;99.90;;;;;;4379879;32;20077;-78
2021/12/02 02:18:51;;;;;;;3.05;2.10;;;-1.40;99.90;;;;;;4379395;32;20576;-78
2021/12/02 02:21:19;;;;;;;2.78;2.15;;;-1.30;99.90;;;;;;4367124;32;20151;-78
2021/12/02 02:23:50;;;;;;;3.28;2.35;;;-1.20;99.90;;;;;;4391886;32;20065;-79
2021/12/02 02:26:23;;;;;;;3.47;2.33;;;-1.30;99.90;;;;;;4392203;32;20078;-78
2021/12/02 02:28:50;;;;;;;2.65;2.00;;;-1.20;99.90;;;;;;4368313;32;20618;-77
2021/12/02 02:31:17;;;;;;;3.08;2.20;;;-1.20;99.90;;;;;;4391907;32;20499;-78
2021/12/02 02:33:49;;;;;;;4.18;2.50;;;-1.20;99.90;;;;;;4379581;32;20076;-77
2021/12/02 02:36:17;;;;;;;4.22;2.58;;;-1.20;99.90;;;;;;4379233;32;20073;-78
2021/12/02 02:38:54;;;;;;;3.45;2.30;;;-1.20;99.90;;;;;;4391565;32;20070;-77
2021/12/02 02:41:22;;;;;;;3.50;2.47;;;-1.10;99.90;;;;;;4380427;32;20077;-78
2021/12/02 02:43:50;;;;;;;3.05;2.08;;;-1.10;99.90;;;;;;4379564;32;20066;-78
2021/12/02 02:46:27;;;;;;;3.90;2.25;;;-1.10;99.90;;;;;;4379153;32;20522;-79
2021/12/02 02:48:53;;;;;;;4.53;2.40;;;-1.00;99.90;;;;;;4378797;32;20520;-78
2021/12/02 02:51:20;;;;;;;4.53;2.40;;;-0.90;99.90;;;;;;4379109;32;20495;-77
2021/12/02 02:53:53;;;;;;;4.22;2.50;;;-0.90;99.90;;;;;;4391745;32;20065;-77
2021/12/02 02:56:24;;;;;;;4.18;2.45;;;-0.80;99.90;;;;;;4379319;32;20093;-78
2021/12/02 02:59:10;;;;;;;2.85;2.20;;;-0.80;99.90;;;;;;4367158;32;20081;-77
2021/12/02 03:01:44;;;;;;;4.43;2.40;;;-0.80;99.90;;;;;;4381776;32;20093;-77
2021/12/02 03:07:07;;;;;;;3.30;2.50;;;-0.80;99.90;;;;;;4391382;32;20100;-78
2021/12/02 03:12:08;;;;;;;3.62;2.60;;;-0.80;99.90;;;;;;4391100;32;20125;-78
2021/12/02 03:17:13;;;;;;;3.62;2.35;;;-0.80;99.90;;;;;;4391468;32;20677;-77
2021/12/02 03:19:41;;;;;;;3.37;2.65;;;-0.80;99.90;;;;;;4378217;32;20183;-78
2021/12/02 03:22:07;;;;;;;3.10;2.30;;;-0.90;99.90;;;;;;4390430;32;20082;-78
2021/12/02 03:24:34;;;;;;;3.25;2.42;;;-0.90;99.90;;;;;;4377652;32;20094;-77
2021/12/02 03:27:00;;;;;;;6.00;2.33;;;-0.90;99.90;;;;;;4365913;32;20085;-78
2021/12/02 03:29:26;;;;;;;3.05;2.22;;;-0.90;99.90;;;;;;4378382;32;20084;-77
2021/12/02 03:31:53;;;;;;;3.67;2.55;;;-0.80;99.90;;;;;;4353722;32;20152;-77
2021/12/02 03:34:19;;;;;;;2.55;1.73;;;-0.80;99.90;;;;;;4366211;32;20246;-77
2021/12/02 03:38:38;;;;;;;2.33;1.67;;;-0.70;99.90;;;;;;3857337;37;20443;-78
2021/12/02 03:41:05;;;;;;;2.85;2.00;;;-0.70;99.90;;;;;;4380648;32;20148;-78
2021/12/02 03:43:46;;;;;;;3.75;2.72;;;-0.70;99.90;;;;;;4393038;32;20415;-78
2021/12/02 03:46:15;;;;;;;3.55;2.33;;;-0.70;99.90;;;;;;4380654;32;20519;-78
2021/12/02 03:48:41;;;;;;;4.45;2.42;;;-0.70;99.90;;;;;;4380972;32;20097;-77
2021/12/02 03:51:09;;;;;;;2.33;1.70;;;-0.80;99.90;;;;;;4381056;32;20080;-78
2021/12/02 03:53:35;;;;;;;2.35;1.60;;;-0.80;99.90;;;;;;4380781;32;20438;-78
2021/12/02 03:56:02;;;;;;;2.60;1.77;;;-0.70;99.90;;;;;;4380956;32;20073;-78
2021/12/02 03:58:29;;;;;;;3.42;2.30;;;-0.70;99.90;;;;;;4380560;32;20081;-77
2021/12/02 04:00:56;;;;;;;2.92;2.17;;;-0.70;99.90;;;;;;4368063;32;20144;-78
2021/12/02 04:03:22;;;;;;;3.67;2.80;;;-0.70;99.90;;;;;;4380271;32;20099;-77
2021/12/02 04:05:48;;;;;;;3.58;2.60;;;-0.80;99.90;;;;;;4392943;32;20165;-77
2021/12/02 04:08:14;;;;;;;3.12;2.45;;;-0.80;99.90;;;;;;4353126;32;20484;-77
2021/12/02 04:10:42;;;;;;;3.65;2.60;;;-0.70;99.90;;;;;;4390600;32;20072;-77
2021/12/02 04:13:20;;;;;;;3.35;2.20;;;-0.80;99.90;;;;;;4377460;32;20100;-78
2021/12/02 04:15:53;;;;;;;4.03;2.20;;;-0.80;99.90;;;;;;4367999;32;20077;-78
2021/12/02 04:18:19;;;;;;;3.85;2.47;;;-0.80;99.90;;;;;;4377952;32;20105;-78
2021/12/02 04:20:46;;;;;;;3.42;2.10;;;-0.80;99.90;;;;;;4377176;32;20085;-78
2021/12/02 04:23:12;;;;;;;3.37;2.40;;;-0.80;99.90;;;;;;4365212;32;20093;-77
2021/12/02 04:25:38;;;;;;;3.10;2.17;;;-0.70;99.90;;;;;;4365207;32;20070;-78
2021/12/02 04:28:04;;;;;;;3.10;2.25;;;-0.70;99.90;;;;;;4352096;32;20528;-77
2021/12/02 04:30:30;;;;;;;3.08;2.25;;;-0.70;99.90;;;;;;4377169;32;20154;-77
2021/12/02 04:32:57;;;;;;;3.80;2.30;;;-0.60;99.90;;;;;;4377026;32;20512;-79
2021/12/02 04:35:23;;;;;;;3.70;2.40;;;-0.80;99.90;;;;;;4365593;32;20142;-77
2021/12/02 04:37:51;;;;;;;3.08;2.35;;;-0.80;99.90;;;;;;4376985;32;20097;-78
2021/12/02 04:40:20;;;;;;;3.45;2.03;;;-0.80;99.90;;;;;;4353423;32;20061;-78
2021/12/02 04:42:47;;;;;;;4.60;2.50;;;-0.80;99.90;;;;;;4377656;32;20089;-78
2021/12/02 04:45:13;;;;;;;4.20;2.80;;;-0.80;99.90;;;;;;4352474;32;20097;-78
2021/12/02 04:47:39;;;;;;;5.57;2.90;;;-0.80;99.90;;;;;;4364422;32;20097;-78
2021/12/02 04:50:10;;;;;;;3.80;2.78;;;-0.80;99.90;;;;;;4355053;32;20074;-78
2021/12/02 04:52:36;;;;;;;5.45;3.90;;;-0.80;99.90;;;;;;4355391;32;20438;-78
2021/12/02 04:55:04;;;;;;;4.87;3.00;;;-0.70;99.90;;;;;;4342478;32;20077;-78
2021/12/02 04:59:54;;;;;;;3.33;2.70;;;-0.60;99.90;;;;;;3834176;37;20130;-77
2021/12/02 05:02:21;;;;;;;4.60;2.95;;;-0.60;99.90;;;;;;4353786;32;20077;-77
2021/12/02 05:04:47;;;;;;;4.12;2.95;;;-0.60;99.90;;;;;;4365478;32;20075;-77
2021/12/02 05:07:13;;;;;;;5.53;3.20;;;-0.50;99.90;;;;;;4337527;32;20081;-77
2021/12/02 05:09:39;;;;;;;4.35;2.87;;;-0.60;99.90;;;;;;4350929;32;20500;-78
2021/12/02 05:12:06;;;;;;;3.22;2.40;;;-0.50;99.90;;;;;;4375403;32;20067;-77
2021/12/02 05:14:32;;;;;;;3.50;2.47;;;-0.50;99.90;;;;;;4350543;32;20089;-77
2021/12/02 05:16:58;;;;;;;4.43;2.60;;;-0.50;99.90;;;;;;4362883;32;20101;-78
2021/12/02 05:19:24;;;;;;;3.87;2.70;;;-0.40;99.90;;;;;;4362758;32;20452;-78
2021/12/02 05:21:50;;;;;;;4.28;2.80;;;-0.40;99.90;;;;;;4362946;32;20149;-78
2021/12/02 05:24:17;;;;;;;3.95;2.65;;;-0.30;99.90;;;;;;4350438;32;20084;-77
2021/12/02 05:26:43;;;;;;;4.43;2.60;;;-0.30;99.90;;;;;;4363088;32;20066;-77
2021/12/02 05:29:09;;;;;;;4.50;2.95;;;-0.30;99.90;;;;;;4363015;32;20156;-77
2021/12/02 05:31:35;;;;;;;6.05;2.72;;;-0.30;99.90;;;;;;4362703;32;20088;-78
2021/12/02 05:34:02;;;;;;;3.78;2.80;;;-0.30;99.90;;;;;;4362772;32;20073;-79
2021/12/02 05:36:28;;;;;;;4.87;2.72;;;-0.20;99.90;;;;;;4363033;32;20090;-76
2021/12/02 05:38:54;;;;;;;3.60;2.70;;;-0.20;99.90;;;;;;4349956;32;20082;-75
2021/12/02 05:41:20;;;;;;;3.28;2.33;;;-0.20;99.90;;;;;;4362714;32;20077;-76
2021/12/02 05:43:46;;;;;;;4.80;3.05;;;-0.20;99.90;;;;;;4362329;32;20191;-77
2021/12/02 05:46:13;;;;;;;3.70;2.40;;;-0.20;99.90;;;;;;4362899;32;20081;-76
2021/12/02 05:48:40;;;;;;;4.07;2.67;;;-0.10;99.90;;;;;;4363094;32;20169;-75
2021/12/02 05:51:07;;;;;;;3.62;2.40;;;-0.20;99.90;;;;;;4363689;32;20096;-76
2021/12/02 05:53:33;;;;;;;4.10;2.87;;;0.00;99.90;;;;;;4364525;32;20583;-77
2021/12/02 05:55:59;;;;;;;5.22;2.50;;;-0.20;99.90;;;;;;4350298;32;20098;-76
2021/12/02 05:58:25;;;;;;;5.65;3.17;;;-0.20;99.90;;;;;;4361907;32;20512;-73
2021/12/02 06:00:53;;;;;;;3.90;3.00;;;-0.10;99.90;;;;;;4362658;32;20078;-79
2021/12/02 06:03:19;;;;;;;3.80;2.65;;;-0.20;99.90;;;;;;4350844;32;20070;-78
2021/12/02 06:05:47;;;;;;;4.95;3.03;;;-0.20;99.90;;;;;;4362251;32;20070;-76
2021/12/02 06:08:14;;;;;;;4.20;2.70;;;-0.10;99.90;;;;;;4350494;32;20085;-78
2021/12/02 06:10:40;;;;;;;4.03;2.83;;;-0.10;99.90;;;;;;4354789;32;20162;-76
2021/12/02 06:13:06;;;;;;;4.05;2.67;;;-0.10;99.90;;;;;;4351958;32;20151;-76
2021/12/02 06:15:33;;;;;;;5.10;3.00;;;-0.10;99.90;;;;;;4378638;32;20097;-75
2021/12/02 06:17:59;;;;;;;4.90;2.85;;;0.00;99.90;;;;;;4352052;32;20070;-76
2021/12/02 06:20:25;;;;;;;4.47;3.03;;;0.00;99.90;;;;;;4352170;32;20452;-78
2021/12/02 06:22:51;;;;;;;4.18;2.90;;;0.00;99.90;;;;;;4351760;32;20094;-75
2021/12/02 06:25:44;;;;;;;4.80;2.85;;;0.00;99.90;;;;;;4351985;32;20086;-75
2021/12/02 06:28:07;;;;;;;4.85;3.20;;;-0.10;99.90;;;;;;4364104;32;20476;-77
2021/12/02 06:30:33;;;;;;;5.37;3.17;;;-0.10;99.90;;;;;;4352801;32;20074;-76
2021/12/02 06:33:00;;;;;;;4.85;3.30;;;-0.20;99.90;;;;;;4352075;32;20101;-76
2021/12/02 06:35:26;;;;;;;4.75;3.25;;;-0.10;99.90;;;;;;4339553;32;20153;-74
2021/12/02 06:37:52;;;;;;;3.95;2.83;;;-0.20;99.90;;;;;;4339291;32;20093;-78
2021/12/02 06:40:18;;;;;;;3.65;2.87;;;-0.10;99.90;;;;;;4352257;32;20063;-74
2021/12/02 06:42:45;;;;;;;4.72;3.22;;;-0.10;99.90;;;;;;4351867;32;20078;-77
2021/12/02 06:45:11;;;;;;;4.55;2.95;;;-0.10;99.90;;;;;;4339862;32;20157;-77
2021/12/02 06:47:39;;;;;;;4.22;2.78;;;-0.10;99.90;;;;;;4351811;32;20074;-75
2021/12/02 06:50:13;;;;;;;4.03;2.80;;;0.00;99.90;;;;;;4339292;32;20514;-77
2021/12/02 06:52:40;;;;;;;5.32;3.30;;;-0.10;99.90;;;;;;4340729;32;20084;-75
2021/12/02 06:55:07;;;;;;;4.07;2.72;;;0.00;99.90;;;;;;4352119;32;20066;-76
2021/12/02 06:57:33;;;;;;;4.00;2.65;;;0.10;99.90;;;;;;4339059;32;20488;-77
2021/12/02 07:00:04;;;;;;;5.65;3.12;;;0.10;99.90;;;;;;4339084;32;20096;-79
2021/12/02 07:02:30;;;;;;;4.55;3.37;;;0.00;99.90;;;;;;4340649;32;20157;-76
2021/12/02 07:04:58;;;;;;;5.15;3.40;;;0.10;99.90;;;;;;4348972;32;20110;-68
2021/12/02 07:07:26;;;;;;;5.25;3.40;;;0.10;99.90;;;;;;4345193;32;20101;-74
2021/12/02 07:09:55;;;;;;;6.22;3.28;;;0.00;99.90;;;;;;4337826;32;20086;-75
2021/12/02 07:12:29;;;;;;;6.10;3.90;;;-0.10;99.90;;;;;;4335703;32;20107;-78
2021/12/02 07:14:55;;;;;;;4.70;3.37;;;-0.10;99.90;;;;;;4354032;32;20531;-73
2021/12/02 07:17:21;;;;;;;5.50;3.72;;;0.00;99.90;;;;;;4335157;32;20142;-79
2021/12/02 07:19:47;;;;;;;4.87;3.25;;;0.00;99.90;;;;;;4310635;32;20120;-79
2021/12/02 07:22:13;;;;;;;5.40;3.80;;;0.00;99.90;;;;;;4334475;32;20082;-75
2021/12/02 07:24:40;;;;;;;5.35;3.50;;;0.00;99.90;;;;;;4356786;32;20061;-74
2021/12/02 07:27:06;;;;;;;4.07;3.05;;;-0.10;99.90;;;;;;4337010;32;20511;-73
2021/12/02 07:29:32;;;;;;;5.05;3.42;;;-0.10;99.90;;;;;;4341729;32;20074;-75
2021/12/02 07:32:03;;;;;;;6.18;3.90;;;-0.20;99.90;;;;;;4336348;32;20081;-75
2021/12/02 07:34:33;;;;;;;5.32;3.40;;;-0.20;99.90;;;;;;4330636;32;20146;-73
2021/12/02 07:37:00;;;;;;;5.75;3.45;;;-0.20;99.90;;;;;;4333223;32;20122;-77
2021/12/02 07:39:26;;;;;;;5.75;3.40;;;-0.20;99.90;;;;;;4345735;32;20101;-80
2021/12/02 07:41:52;;;;;;;5.97;3.65;;;-0.20;99.90;;;;;;4341841;32;20122;-74
2021/12/02 07:44:18;;;;;;;5.28;3.62;;;-0.10;99.90;;;;;;4342581;32;20496;-75
2021/12/02 07:46:45;;;;;;;6.47;3.80;;;-0.10;99.90;;;;;;4347486;32;20070;-76
2021/12/02 07:49:14;;;;;;;5.07;3.40;;;0.00;99.90;;;;;;4338172;32;20078;-74
2021/12/02 07:51:44;;;;;;;6.15;3.90;;;0.00;99.90;;;;;;4335629;32;20484;-75
2021/12/02 07:54:12;;;;;;;5.90;4.10;;;0.00;99.90;;;;;;4348074;32;20055;-78
2021/12/02 07:56:38;;;;;;;5.72;3.65;;;0.10;99.90;;;;;;4319732;32;20505;-76
2021/12/02 07:59:09;;;;;;;5.15;3.65;;;0.20;99.90;;;;;;4331863;32;20082;-77
2021/12/02 08:01:35;;;;;;;5.70;3.60;;;0.20;99.90;;;;;;4342196;32;20058;-77
2021/12/02 08:04:02;;;;;;;6.60;3.55;;;0.10;99.90;;;;;;4326709;32;20054;-78
2021/12/02 08:06:28;;;;;;;5.28;3.78;;;0.20;99.90;;;;;;4342365;32;20100;-79
2021/12/02 08:08:54;;;;;;;4.93;3.45;;;0.20;99.90;;;;;;4347245;32;20078;-76
2021/12/02 08:11:21;;;;;;;5.95;3.70;;;0.40;99.90;;;;;;4340657;32;20085;-80
2021/12/02 08:13:51;;;;;;;5.80;3.83;;;0.20;99.90;;;;;;4341970;32;20085;-76
2021/12/02 08:16:20;;;;;;;5.97;3.70;;;0.30;99.90;;;;;;4345618;32;20102;-75
2021/12/02 08:18:47;;;;;;;5.45;3.62;;;0.40;99.90;;;;;;4336819;32;20105;-75
2021/12/02 08:21:13;;;;;;;5.35;3.87;;;0.30;99.90;;;;;;4314682;32;20075;-75
2021/12/02 08:23:39;;;;;;;5.65;3.45;;;0.40;99.90;;;;;;4341592;32;20155;-75
2021/12/02 08:26:11;;;;;;;5.70;4.22;;;0.40;99.90;;;;;;4334220;32;20520;-76
2021/12/02 08:28:38;;;;;;;6.03;3.60;;;0.30;99.90;;;;;;4332181;32;20104;-75
2021/12/02 08:31:04;;;;;;;8.10;3.60;;;0.30;99.90;;;;;;4327201;32;20487;-72
2021/12/02 08:33:31;;;;;;;5.18;3.65;;;0.20;99.90;;;;;;4339046;32;20066;-80
2021/12/02 08:35:57;;;;;;;5.35;4.20;;;0.30;99.90;;;;;;4342435;32;20522;-79
2021/12/02 08:38:32;;;;;;;5.53;4.03;;;0.30;99.90;;;;;;4335650;32;20659;-76
2021/12/02 08:41:00;;;;;;;5.85;3.95;;;0.30;99.90;;;;;;4348801;32;20479;-81
2021/12/02 08:43:26;;;;;;;5.28;4.07;;;0.40;99.90;;;;;;4348904;32;20508;-78
2021/12/02 08:45:53;;;;;;;6.07;4.18;;;0.30;99.90;;;;;;4312070;32;20114;-77
2021/12/02 08:48:19;;;;;;;5.62;4.15;;;0.30;99.90;;;;;;4337711;32;20085;-78
2021/12/02 08:50:47;;;;;;;5.53;4.00;;;0.30;99.90;;;;;;4351478;32;20090;-73
2021/12/02 08:53:13;;;;;;;6.05;4.18;;;0.30;99.90;;;;;;4334680;32;20169;-76
2021/12/02 08:55:40;;;;;;;5.78;3.75;;;0.50;99.90;;;;;;4347972;32;20603;-76
2021/12/02 08:58:09;;;;;;;5.95;4.18;;;0.40;99.90;;;;;;4335670;32;20102;-76
2021/12/02 09:00:36;;;;;;;6.68;4.50;;;0.40;99.90;;;;;;4338106;32;20085;-76
2021/12/02 09:03:04;;;;;;;5.37;3.62;;;0.50;99.90;;;;;;4325355;32;20093;-75
2021/12/02 09:05:30;;;;;;;6.43;4.45;;;0.50;99.90;;;;;;4337392;32;20580;-76
2021/12/02 09:07:56;;;;;;;7.03;4.25;;;0.40;99.90;;;;;;4337338;32;20173;-76
2021/12/02 09:10:25;;;;;;;5.68;3.75;;;0.50;99.90;;;;;;4325392;32;20066;-76
2021/12/02 09:12:52;;;;;;;6.68;4.15;;;0.50;99.90;;;;;;4338520;32;20174;-76
2021/12/02 09:15:18;;;;;;;5.85;4.30;;;0.50;99.90;;;;;;4337836;32;20102;-76
2021/12/02 09:17:44;;;;;;;6.30;4.20;;;0.50;99.90;;;;;;4336516;32;20521;-76
2021/12/02 09:20:12;;;;;;;6.00;4.28;;;0.50;99.90;;;;;;4337934;32;20088;-76
2021/12/02 09:22:39;;;;;;;6.22;4.28;;;0.50;99.90;;;;;;4337478;32;20109;-75
2021/12/02 09:25:06;;;;;;;6.00;4.50;;;0.50;99.90;;;;;;4337109;32;20421;-76
2021/12/02 09:27:32;;;;;;;6.87;4.25;;;0.40;99.90;;;;;;4324775;32;20082;-76
2021/12/02 09:29:59;;;;;;;6.15;4.25;;;0.50;99.90;;;;;;4337211;32;20090;-76
2021/12/02 09:32:26;;;;;;;6.15;3.95;;;0.50;99.90;;;;;;4349749;32;20158;-77
2021/12/02 09:34:52;;;;;;;5.75;4.18;;;0.60;99.90;;;;;;4362088;32;20074;-75
2021/12/02 09:37:18;;;;;;;6.20;4.05;;;0.60;99.90;;;;;;4325466;32;20094;-76
2021/12/02 09:39:44;;;;;;;6.95;4.47;;;0.50;99.90;;;;;;4337655;32;20074;-76
2021/12/02 09:42:10;;;;;;;5.50;4.00;;;0.70;99.90;;;;;;4325640;32;20081;-77
2021/12/02 09:44:38;;;;;;;6.07;4.37;;;0.60;99.90;;;;;;4338341;32;20155;-77
2021/12/02 09:47:05;;;;;;;6.22;4.40;;;0.70;99.90;;;;;;4352661;32;20153;-77
2021/12/02 09:49:31;;;;;;;6.50;4.40;;;0.80;99.90;;;;;;4340335;32;20069;-76
2021/12/02 09:52:02;;;;;;;5.78;4.15;;;0.80;99.90;;;;;;4340114;32;20082;-76
2021/12/02 09:54:38;;;;;;;5.10;3.53;;;0.70;99.90;;;;;;4329258;32;20082;-76
2021/12/02 09:57:06;;;;;;;8.35;5.20;;;0.70;99.90;;;;;;4342206;32;20074;-77
2021/12/02 10:02:04;;;;;;;5.68;3.83;;;0.70;99.90;;;;;;4340379;32;20086;-76
2021/12/02 10:04:38;;;;;;;10.00;4.90;;;0.80;99.90;;;;;;4328520;32;20063;-76
2021/12/02 10:07:28;;;;;;;5.93;3.87;;;0.70;99.90;;;;;;4341690;32;20068;-77
2021/12/02 10:10:13;;;;;;;7.60;4.50;;;0.70;99.90;;;;;;4343901;32;20101;-78
2021/12/02 10:12:52;;;;;;;7.47;4.18;;;0.70;99.90;;;;;;4331441;32;20082;-75
2021/12/02 10:15:21;;;;;;;7.00;4.50;;;0.70;99.90;;;;;;4343751;32;20097;-77
2021/12/02 10:17:50;;;;;;;7.45;4.47;;;0.80;99.90;;;;;;4364032;32;20097;-77
2021/12/02 10:20:44;;;;;;;6.37;4.47;;;0.60;99.90;;;;;;4376391;32;20475;-76
2021/12/02 10:23:22;;;;;;;6.57;4.25;;;0.70;99.90;;;;;;4351723;32;20077;-77
2021/12/02 10:26:00;;;;;;;6.35;4.15;;;0.70;99.90;;;;;;4352413;32;20089;-78
2021/12/02 10:28:35;;;;;;;6.90;4.97;;;0.70;99.90;;;;;;4364205;32;20525;-78
2021/12/02 10:31:05;;;;;;;7.20;4.62;;;0.60;99.90;;;;;;4376607;32;20082;-75
2021/12/02 10:33:45;;;;;;;6.87;4.03;;;0.70;99.90;;;;;;4376840;32;20085;-76
2021/12/02 10:36:39;;;;;;;7.68;4.70;;;0.60;99.90;;;;;;4351673;32;20059;-77
2021/12/02 10:39:24;;;;;;;7.55;4.47;;;0.60;99.90;;;;;;4346070;32;20152;-77
2021/12/02 10:42:05;;;;;;;7.72;4.43;;;0.70;99.90;;;;;;4376518;32;20093;-76
2021/12/02 10:44:34;;;;;;;6.50;4.53;;;0.60;99.90;;;;;;4351329;32;20166;-77
2021/12/02 10:47:12;;;;;;;5.32;3.67;;;0.70;99.90;;;;;;4376867;32;20088;-77
2021/12/02 10:49:50;;;;;;;6.85;4.20;;;0.70;99.90;;;;;;4363778;32;20173;-77
2021/12/02 10:52:25;;;;;;;7.65;4.30;;;0.60;99.90;;;;;;4376504;32;20161;-78
2021/12/02 10:55:03;;;;;;;6.53;4.15;;;0.60;99.90;;;;;;4351686;32;20156;-77
2021/12/02 10:57:33;;;;;;;6.12;4.37;;;0.60;99.90;;;;;;4375798;32;20082;-79
2021/12/02 11:00:09;;;;;;;7.18;4.43;;;0.60;99.90;;;;;;4363529;32;20093;-77
2021/12/02 11:02:48;;;;;;;6.68;4.30;;;0.60;99.90;;;;;;4351254;32;20101;-77
2021/12/02 11:05:28;;;;;;;6.20;4.05;;;0.70;99.90;;;;;;4339788;32;20083;-77
2021/12/02 11:08:05;;;;;;;6.40;4.65;;;0.60;99.90;;;;;;4363774;32;20061;-76
2021/12/02 11:10:41;;;;;;;6.22;4.37;;;0.60;99.90;;;;;;4351361;32;20075;-77
2021/12/02 11:13:10;;;;;;;7.72;4.55;;;0.70;99.90;;;;;;4363403;32;20539;-76
2021/12/02 11:15:39;;;;;;;6.65;4.37;;;0.70;99.90;;;;;;4339013;32;20461;-77
2021/12/02 11:18:21;;;;;;;;;;;;;;;;;;;;;
2021/12/02 11:20:58;;;;;;;7.07;4.45;;;0.70;99.90;;;;;;3853472;37;20252;-76
2021/12/02 11:23:43;;;;;;;5.95;4.37;;;0.70;99.90;;;;;;4381021;32;20088;-78
2021/12/02 11:26:16;;;;;;;5.47;3.80;;;0.70;99.90;;;;;;4393203;32;20166;-76
2021/12/02 11:28:43;;;;;;;6.35;4.18;;;0.70;99.90;;;;;;4405490;32;20531;-76
2021/12/02 11:31:17;;;;;;;8.02;4.20;;;0.70;99.90;;;;;;4405242;32;20085;-77
2021/12/02 11:33:45;;;;;;;7.40;4.78;;;0.70;99.90;;;;;;4403424;32;20089;-72
2021/12/02 11:36:25;;;;;;;6.90;3.85;;;0.60;99.90;;;;;;4390187;32;21328;-76
2021/12/02 11:38:57;;;;;;;5.93;4.25;;;0.70;99.90;;;;;;4416070;32;20088;-76
2021/12/02 11:41:24;;;;;;;6.20;4.40;;;0.70;99.90;;;;;;4405368;32;20075;-76
2021/12/02 11:43:53;;;;;;;6.47;4.45;;;0.70;99.90;;;;;;4414118;32;20100;-74
2021/12/02 11:46:20;;;;;;;6.40;4.30;;;0.60;99.90;;;;;;4407395;32;20157;-76
2021/12/02 11:48:47;;;;;;;7.28;4.55;;;0.60;99.90;;;;;;4392877;32;20532;-79
2021/12/02 11:51:18;;;;;;;7.22;4.28;;;0.60;99.90;;;;;;4398840;32;20067;-79
2021/12/02 11:53:47;;;;;;;7.32;4.55;;;0.60;99.90;;;;;;4399150;32;20065;-70
2021/12/02 11:56:22;;;;;;;6.28;3.97;;;0.60;99.90;;;;;;4389196;32;20085;-73
2021/12/02 11:58:54;;;;;;;6.40;4.28;;;0.60;99.90;;;;;;4381153;32;20086;-75
2021/12/02 12:01:24;;;;;;;6.62;4.00;;;0.60;99.90;;;;;;4384934;32;20151;-76
2021/12/02 12:03:55;;;;;;;8.00;4.40;;;0.60;99.90;;;;;;4409282;32;20503;-74
2021/12/02 12:06:34;;;;;;;6.25;4.30;;;0.60;99.90;;;;;;4384704;32;20081;-79
2021/12/02 12:09:12;;;;;;;6.40;4.22;;;0.60;99.90;;;;;;4372361;32;20072;-77
2021/12/02 12:11:49;;;;;;;6.47;4.37;;;0.60;99.90;;;;;;4384942;32;20625;-76
2021/12/02 12:14:19;;;;;;;6.30;4.00;;;0.50;99.90;;;;;;4367669;32;20085;-71
2021/12/02 12:17:04;;;;;;;7.05;4.60;;;0.60;99.90;;;;;;4380759;32;20101;-74
2021/12/02 12:19:32;;;;;;;6.25;3.92;;;0.60;99.90;;;;;;4369692;32;20096;-74
2021/12/02 12:22:25;;;;;;;5.32;3.70;;;0.60;99.90;;;;;;4375024;32;20439;-73
2021/12/02 12:24:55;;;;;;;7.03;3.85;;;0.60;99.90;;;;;;4372185;32;20432;-74
2021/12/02 12:27:24;;;;;;;5.87;3.80;;;0.50;99.90;;;;;;4378902;32;20085;-77
2021/12/02 12:30:11;;;;;;;5.10;3.47;;;0.50;99.90;;;;;;4383672;32;20074;-73
2021/12/02 12:33:12;;;;;;;4.68;3.10;;;0.50;99.90;;;;;;4350038;32;20063;-77
2021/12/02 12:35:55;;;;;;;7.05;3.95;;;0.40;99.90;;;;;;4354204;32;20106;-74
2021/12/02 12:38:33;;;;;;;8.73;3.85;;;0.40;99.90;;;;;;4374780;32;20062;-71
2021/12/02 12:41:11;;;;;;;5.93;3.40;;;0.40;99.90;;;;;;4374959;32;20156;-73
2021/12/02 12:43:49;;;;;;;5.65;3.60;;;0.40;99.90;;;;;;4385824;32;20187;-74
2021/12/02 12:46:26;;;;;;;4.82;3.10;;;0.40;99.90;;;;;;4358971;32;20082;-74
2021/12/02 12:48:57;;;;;;;7.05;3.50;;;0.40;99.90;;;;;;4346647;32;20090;-78
2021/12/02 12:51:53;;;;;;;4.78;3.20;;;0.40;99.90;;;;;;4375065;32;20068;-75
2021/12/02 12:54:22;;;;;;;4.97;3.10;;;0.40;99.90;;;;;;4376109;32;20166;-76
2021/12/02 12:57:02;;;;;;;6.32;3.28;;;0.40;99.90;;;;;;4365947;32;20500;-70
2021/12/02 12:59:29;;;;;;;4.55;3.10;;;0.30;99.90;;;;;;4363923;32;20165;-74
2021/12/02 13:02:02;;;;;;;5.20;2.90;;;0.30;99.90;;;;;;4377471;32;20161;-73
2021/12/02 13:04:33;;;;;;;5.22;3.25;;;0.30;99.90;;;;;;4359628;32;20070;-72
2021/12/02 13:07:15;;;;;;;5.10;3.58;;;0.20;99.90;;;;;;4362996;32;20161;-70
2021/12/02 13:09:48;;;;;;;4.78;3.50;;;0.30;99.90;;;;;;4376214;32;20077;-76
2021/12/02 13:12:19;;;;;;;4.53;2.80;;;0.20;99.90;;;;;;4360609;32;20094;-74
2021/12/02 13:14:51;;;;;;;3.58;2.70;;;0.20;99.90;;;;;;4379570;32;20077;-83
2021/12/02 13:17:43;;;;;;;3.80;2.67;;;0.20;99.90;;;;;;4376570;32;20074;-78
2021/12/02 13:20:20;;;;;;;4.25;2.97;;;0.20;99.90;;;;;;4374773;32;20082;-77
2021/12/02 13:23:08;;;;;;;6.43;3.15;;;0.20;99.90;;;;;;4378835;32;20473;-78
2021/12/02 13:25:56;;;;;;;4.12;2.62;;;0.10;99.90;;;;;;4379234;32;20081;-79
2021/12/02 13:28:34;;;;;;;3.47;2.47;;;0.10;99.90;;;;;;4372024;32;20060;-77
2021/12/02 13:31:08;;;;;;;3.97;2.58;;;0.10;99.90;;;;;;4347428;32;20530;-80